createdAt,value
2018-06-22T00:01:34.106Z,97363.29
2018-06-22T00:04:01.624Z,97364.15
2018-06-22T00:06:29.080Z,97360.03
2018-06-22T00:08:56.765Z,97363.95
2018-06-22T00:11:24.267Z,97371.27
2018-06-22T00:13:51.785Z,97366.52
2018-06-22T00:16:19.246Z,97356.00
2018-06-22T00:18:46.701Z,97364.73
2018-06-22T00:21:14.172Z,97358.22
2018-06-22T00:23:41.606Z,97362.70
2018-06-22T00:26:09.068Z,97357.73
2018-06-22T00:28:36.546Z,97361.73
2018-06-22T00:31:04.004Z,97352.16
2018-06-22T00:33:31.513Z,97355.75
2018-06-22T00:35:58.955Z,97357.08
2018-06-22T00:38:26.458Z,97353.52
2018-06-22T00:40:54.485Z,97350.98
2018-06-22T00:43:21.944Z,97351.64
2018-06-22T00:45:49.406Z,97355.25
2018-06-22T00:48:16.842Z,97353.08
2018-06-22T00:50:44.298Z,97355.89
2018-06-22T00:53:11.792Z,97356.19
2018-06-22T00:55:39.880Z,97355.40
2018-06-22T00:58:07.323Z,97360.47
2018-06-22T01:00:34.736Z,97365.09
2018-06-22T01:03:02.142Z,97363.29
2018-06-22T01:05:29.563Z,97372.86
2018-06-22T01:07:56.991Z,97375.08
2018-06-22T01:10:24.389Z,97378.33
2018-06-22T01:12:51.864Z,97380.86
2018-06-22T01:15:19.379Z,97375.88
2018-06-22T01:17:46.836Z,97380.17
2018-06-22T01:20:14.230Z,97382.17
2018-06-22T01:22:42.066Z,97375.65
2018-06-22T01:25:09.503Z,97373.91
2018-06-22T01:27:37.124Z,97387.75
2018-06-22T01:30:04.556Z,97384.98
2018-06-22T01:32:32.013Z,97383.19
2018-06-22T01:34:59.471Z,97387.83
2018-06-22T01:37:26.963Z,97389.72
2018-06-22T01:42:28.277Z,97392.76
2018-06-22T01:44:55.678Z,97392.02
2018-06-22T01:47:23.086Z,97398.28
2018-06-22T01:49:50.543Z,97394.75
2018-06-22T01:52:18.066Z,97402.06
2018-06-22T01:54:45.556Z,97404.73
2018-06-22T01:57:13.072Z,97401.45
2018-06-22T01:59:40.527Z,97401.42
2018-06-22T02:02:08.038Z,97402.34
2018-06-22T02:04:35.533Z,97414.05
2018-06-22T02:07:02.996Z,97416.99
2018-06-22T02:09:30.413Z,97408.76
2018-06-22T02:11:57.896Z,97413.72
2018-06-22T02:14:25.341Z,97414.94
2018-06-22T02:16:52.804Z,97417.37
2018-06-22T02:19:20.243Z,97420.41
2018-06-22T02:21:47.741Z,97413.44
2018-06-22T02:24:15.155Z,97411.05
2018-06-22T02:26:42.610Z,97414.48
2018-06-22T02:29:10.161Z,97426.05
2018-06-22T02:31:37.627Z,97422.10
2018-06-22T02:34:05.081Z,97420.66
2018-06-22T02:36:32.574Z,97424.05
2018-06-22T02:39:00.013Z,97425.66
2018-06-22T02:41:27.434Z,97422.67
2018-06-22T02:43:54.872Z,97422.81
2018-06-22T02:46:22.323Z,97430.25
2018-06-22T02:48:50.147Z,97426.28
2018-06-22T02:51:17.640Z,97426.16
2018-06-22T02:53:45.075Z,97421.69
2018-06-22T02:56:12.592Z,97429.56
2018-06-22T02:58:40.113Z,97429.56
2018-06-22T03:01:07.564Z,97437.40
2018-06-22T03:03:35.017Z,97426.23
2018-06-22T03:06:02.538Z,97426.70
2018-06-22T03:08:30.091Z,97434.02
2018-06-22T03:10:57.573Z,97433.55
2018-06-22T03:13:24.991Z,97437.77
2018-06-22T03:15:52.436Z,97442.22
2018-06-22T03:18:19.867Z,97447.82
2018-06-22T03:20:47.296Z,97453.16
2018-06-22T03:23:14.763Z,97447.28
2018-06-22T03:25:42.168Z,97446.34
2018-06-22T03:28:09.668Z,97453.21
2018-06-22T03:30:37.088Z,97456.87
2018-06-22T03:33:04.538Z,97462.70
2018-06-22T03:35:31.942Z,97454.61
2018-06-22T03:37:59.423Z,97455.17
2018-06-22T03:40:26.889Z,97448.34
2018-06-22T03:42:54.383Z,97465.31
2018-06-22T03:45:21.818Z,97462.05
2018-06-22T03:47:49.294Z,97462.48
2018-06-22T03:50:16.755Z,97465.03
2018-06-22T03:52:44.361Z,97474.25
2018-06-22T03:55:11.797Z,97467.50
2018-06-22T03:57:39.244Z,97469.44
2018-06-22T04:00:06.663Z,97479.05
2018-06-22T04:02:34.115Z,97474.57
2018-06-22T04:05:01.590Z,97463.30
2018-06-22T04:07:29.172Z,97473.94
2018-06-22T04:09:56.645Z,97473.41
2018-06-22T04:12:24.164Z,97469.50
2018-06-22T04:14:51.755Z,97478.19
2018-06-22T04:17:19.253Z,97465.84
2018-06-22T04:19:46.735Z,97474.12
2018-06-22T04:22:14.180Z,97472.30
2018-06-22T04:24:41.717Z,97488.14
2018-06-22T04:27:09.139Z,97482.55
2018-06-22T04:29:36.663Z,97487.72
2018-06-22T04:32:04.200Z,97484.57
2018-06-22T04:34:31.949Z,97484.61
2018-06-22T04:36:59.384Z,97491.69
2018-06-22T04:39:26.866Z,97482.02
2018-06-22T04:41:54.317Z,97486.78
2018-06-22T04:44:21.780Z,97471.05
2018-06-22T04:46:49.256Z,97484.06
2018-06-22T04:49:16.747Z,97483.56
2018-06-22T04:51:44.352Z,97486.02
2018-06-22T04:54:11.824Z,97481.69
2018-06-22T04:56:39.291Z,97484.97
2018-06-22T04:59:06.713Z,97485.25
2018-06-22T05:01:34.211Z,97485.17
2018-06-22T05:04:01.665Z,97491.11
2018-06-22T05:06:29.113Z,97495.23
2018-06-22T05:08:56.677Z,97487.41
2018-06-22T05:11:24.177Z,97487.31
2018-06-22T05:13:51.675Z,97496.50
2018-06-22T05:16:19.081Z,97490.88
2018-06-22T05:18:46.635Z,97498.14
2018-06-22T05:21:14.052Z,97507.03
2018-06-22T05:23:41.495Z,97499.94
2018-06-22T05:26:08.923Z,97508.12
2018-06-22T05:28:37.273Z,97517.20
2018-06-22T05:31:04.740Z,97505.88
2018-06-22T05:33:32.291Z,97513.66
2018-06-22T05:35:59.816Z,97524.02
2018-06-22T05:38:27.331Z,97521.41
2018-06-22T05:40:54.951Z,97518.85
2018-06-22T05:43:22.470Z,97542.70
2018-06-22T05:45:49.995Z,97533.52
2018-06-22T05:48:17.507Z,97528.39
2018-06-22T05:50:45.207Z,97526.77
2018-06-22T05:53:12.836Z,97529.08
2018-06-22T05:55:40.708Z,97525.84
2018-06-22T05:58:08.322Z,97538.05
2018-06-22T06:00:35.736Z,97547.48
2018-06-22T06:03:03.227Z,97532.70
2018-06-22T06:05:30.679Z,97546.24
2018-06-22T06:07:58.220Z,97533.20
2018-06-22T06:10:25.669Z,97539.63
2018-06-22T06:12:53.277Z,97542.91
2018-06-22T06:15:20.759Z,97541.36
2018-06-22T06:17:48.303Z,97542.50
2018-06-22T06:20:15.747Z,97548.67
2018-06-22T06:22:43.173Z,97552.33
2018-06-22T06:25:10.620Z,97541.20
2018-06-22T06:27:38.042Z,97547.80
2018-06-22T06:30:05.481Z,97552.98
2018-06-22T06:32:33.798Z,97565.91
2018-06-22T06:35:01.258Z,97560.41
2018-06-22T06:37:28.684Z,97567.57
2018-06-22T06:39:56.146Z,97561.70
2018-06-22T06:42:23.649Z,97557.91
2018-06-22T06:44:51.151Z,97564.33
2018-06-22T06:47:18.900Z,97573.23
2018-06-22T06:49:46.423Z,97570.59
2018-06-22T06:52:13.842Z,97580.39
2018-06-22T06:54:41.328Z,97586.95
2018-06-22T06:57:08.787Z,97584.64
2018-06-22T06:59:37.150Z,97579.41
2018-06-22T07:02:04.582Z,97582.95
2018-06-22T07:04:32.140Z,97584.36
2018-06-22T07:06:59.624Z,97588.93
2018-06-22T07:09:27.075Z,97585.63
2018-06-22T07:11:54.579Z,97593.92
2018-06-22T07:14:22.068Z,97593.56
2018-06-22T07:16:49.531Z,97589.91
2018-06-22T07:19:17.015Z,97589.69
2018-06-22T07:21:44.578Z,97595.34
2018-06-22T07:24:12.124Z,97601.59
2018-06-22T07:26:39.582Z,97608.30
2018-06-22T07:29:07.019Z,97608.47
2018-06-22T07:31:34.467Z,97612.48
2018-06-22T07:34:01.913Z,97613.94
2018-06-22T07:36:29.408Z,97604.36
2018-06-22T07:38:56.894Z,97600.50
2018-06-22T07:41:24.456Z,97612.39
2018-06-22T07:43:52.002Z,97601.42
2018-06-22T07:46:19.615Z,97615.50
2018-06-22T07:48:47.069Z,97600.34
2018-06-22T07:51:14.541Z,97613.43
2018-06-22T07:53:42.006Z,97623.75
2018-06-22T07:56:09.458Z,97619.00
2018-06-22T07:58:36.971Z,97624.90
2018-06-22T08:01:04.395Z,97623.63
2018-06-22T08:03:31.925Z,97629.11
2018-06-22T08:05:59.326Z,97640.52
2018-06-22T08:08:27.041Z,97627.77
2018-06-22T08:10:54.515Z,97629.33
2018-06-22T08:13:23.004Z,97634.33
2018-06-22T08:15:50.625Z,97627.01
2018-06-22T08:18:18.133Z,97633.69
2018-06-22T08:20:45.608Z,97637.02
2018-06-22T08:23:13.055Z,97633.19
2018-06-22T08:25:40.473Z,97638.28
2018-06-22T08:28:07.939Z,97635.91
2018-06-22T08:30:35.519Z,97638.36
2018-06-22T08:33:03.044Z,97629.67
2018-06-22T08:35:30.543Z,97645.48
2018-06-22T08:37:57.974Z,97653.08
2018-06-22T08:40:25.437Z,97649.33
2018-06-22T08:42:52.990Z,97651.49
2018-06-22T08:45:20.462Z,97656.58
2018-06-22T08:47:47.876Z,97639.72
2018-06-22T08:50:15.401Z,97652.06
2018-06-22T08:52:42.889Z,97641.94
2018-06-22T08:55:10.287Z,97637.89
2018-06-22T08:57:37.723Z,97644.82
2018-06-22T09:00:05.165Z,97646.06
2018-06-22T09:02:32.651Z,97645.30
2018-06-22T09:05:00.139Z,97640.47
2018-06-22T09:07:27.622Z,97656.54
2018-06-22T09:09:55.028Z,97649.88
2018-06-22T09:12:22.469Z,97656.48
2018-06-22T09:14:49.904Z,97648.10
2018-06-22T09:17:17.334Z,97664.64
2018-06-22T09:19:44.827Z,97662.07
2018-06-22T09:22:12.243Z,97650.62
2018-06-22T09:24:39.663Z,97652.34
2018-06-22T09:27:07.111Z,97657.78
2018-06-22T09:29:34.574Z,97654.02
2018-06-22T09:32:02.010Z,97643.27
2018-06-22T09:34:29.440Z,97656.89
2018-06-22T09:36:56.916Z,97644.25
2018-06-22T09:39:24.359Z,97657.75
2018-06-22T09:41:51.825Z,97649.36
2018-06-22T09:44:19.308Z,97646.95
2018-06-22T09:46:46.779Z,97645.77
2018-06-22T09:49:14.331Z,97635.81
2018-06-22T09:51:41.788Z,97634.20
2018-06-22T09:54:09.555Z,97630.16
2018-06-22T09:56:37.006Z,97635.50
2018-06-22T09:59:04.426Z,97633.73
2018-06-22T10:01:31.897Z,97623.91
2018-06-22T10:03:59.480Z,97623.75
2018-06-22T10:06:26.969Z,97624.86
2018-06-22T10:08:54.510Z,97619.52
2018-06-22T10:11:22.035Z,97617.91
2018-06-22T10:13:49.424Z,97628.19
2018-06-22T10:16:16.933Z,97620.75
2018-06-22T10:18:44.420Z,97630.28
2018-06-22T10:21:11.909Z,97611.66
2018-06-22T10:23:39.409Z,97616.64
2018-06-22T10:26:06.932Z,97612.56
2018-06-22T10:28:34.428Z,97612.69
2018-06-22T10:31:01.855Z,97610.98
2018-06-22T10:33:29.579Z,97622.54
2018-06-22T10:35:57.016Z,97618.47
2018-06-22T10:38:25.720Z,97621.53
2018-06-22T10:40:53.216Z,97621.94
2018-06-22T10:43:20.726Z,97616.36
2018-06-22T10:45:48.200Z,97614.83
2018-06-22T10:48:15.620Z,97604.56
2018-06-22T10:50:43.155Z,97599.87
2018-06-22T10:53:10.927Z,97608.41
2018-06-22T10:55:38.416Z,97600.98
2018-06-22T10:58:05.856Z,97609.77
2018-06-22T11:00:33.411Z,97608.59
2018-06-22T11:03:00.893Z,97611.06
2018-06-22T11:05:28.318Z,97600.33
2018-06-22T11:07:55.776Z,97605.58
2018-06-22T11:10:23.258Z,97606.57
2018-06-22T11:12:50.721Z,97602.82
2018-06-22T11:15:18.350Z,97607.10
2018-06-22T11:17:45.809Z,97599.59
2018-06-22T11:20:13.249Z,97602.72
2018-06-22T11:22:40.699Z,97600.34
2018-06-22T11:25:08.177Z,97595.25
2018-06-22T11:27:35.730Z,97597.34
2018-06-22T11:30:03.172Z,97598.19
2018-06-22T11:32:30.613Z,97591.59
2018-06-22T11:34:58.174Z,97602.48
2018-06-22T11:37:25.612Z,97580.31
2018-06-22T11:39:53.072Z,97591.02
2018-06-22T11:42:20.580Z,97594.42
2018-06-22T11:44:48.032Z,97591.09
2018-06-22T11:47:15.644Z,97599.09
2018-06-22T11:49:43.116Z,97590.28
2018-06-22T11:52:10.522Z,97594.55
2018-06-22T11:54:38.020Z,97599.44
2018-06-22T11:57:05.532Z,97602.03
2018-06-22T11:59:32.969Z,97585.45
2018-06-22T12:02:00.431Z,97591.03
2018-06-22T12:04:27.932Z,97579.31
2018-06-22T12:06:55.642Z,97591.27
2018-06-22T12:09:23.096Z,97576.31
2018-06-22T12:11:50.555Z,97582.61
2018-06-22T12:14:18.763Z,97584.48
2018-06-22T12:16:46.312Z,97583.13
2018-06-22T12:19:14.009Z,97571.34
2018-06-22T12:21:41.513Z,97574.58
2018-06-22T12:24:08.959Z,97579.83
2018-06-22T12:26:36.611Z,97575.88
2018-06-22T12:29:04.137Z,97578.19
2018-06-22T12:31:31.872Z,97573.67
2018-06-22T12:33:59.351Z,97564.28
2018-06-22T12:36:26.871Z,97564.22
2018-06-22T12:38:54.344Z,97570.74
2018-06-22T12:41:21.797Z,97564.23
2018-06-22T12:43:49.243Z,97562.81
2018-06-22T12:46:16.693Z,97563.98
2018-06-22T12:48:44.144Z,97567.03
2018-06-22T12:51:11.550Z,97565.25
2018-06-22T12:53:39.086Z,97556.41
2018-06-22T12:56:06.571Z,97552.28
2018-06-22T12:58:33.966Z,97561.98
2018-06-22T13:01:01.473Z,97561.02
2018-06-22T13:03:28.932Z,97556.78
2018-06-22T13:05:57.068Z,97556.52
2018-06-22T13:08:24.641Z,97550.20
2018-06-22T13:10:52.094Z,97556.51
2018-06-22T13:13:19.514Z,97555.50
2018-06-22T13:15:46.944Z,97565.80
2018-06-22T13:18:14.355Z,97552.90
2018-06-22T13:20:41.845Z,97561.15
2018-06-22T13:23:09.324Z,97552.20
2018-06-22T13:25:36.731Z,97553.72
2018-06-22T13:28:04.276Z,97555.44
2018-06-22T13:30:31.807Z,97545.86
2018-06-22T13:32:59.300Z,97545.91
2018-06-22T13:35:27.096Z,97536.08
2018-06-22T13:37:54.559Z,97534.81
2018-06-22T13:40:21.997Z,97537.97
2018-06-22T13:42:49.468Z,97539.56
2018-06-22T13:45:16.928Z,97543.22
2018-06-22T13:47:44.397Z,97536.77
2018-06-22T13:50:11.993Z,97540.02
2018-06-22T13:52:39.604Z,97539.25
2018-06-22T13:55:07.200Z,97541.36
2018-06-22T13:57:34.652Z,97507.66
2018-06-22T14:00:02.339Z,97527.95
2018-06-22T14:02:29.783Z,97538.67
2018-06-22T14:07:50.169Z,97526.08
2018-06-22T14:10:17.698Z,97522.38
2018-06-22T14:12:45.200Z,97540.14
2018-06-22T14:15:12.794Z,97540.14
2018-06-22T14:17:40.199Z,97533.97
2018-06-22T14:20:07.710Z,97542.54
2018-06-22T14:22:35.126Z,97536.23
2018-06-22T14:25:02.585Z,97542.58
2018-06-22T14:27:30.021Z,97539.48
2018-06-22T14:29:57.520Z,97525.59
2018-06-22T14:32:24.937Z,97542.48
2018-06-22T14:34:52.628Z,97536.96
2018-06-22T14:37:20.133Z,97537.89
2018-06-22T14:39:47.619Z,97537.45
2018-06-22T14:42:15.063Z,97533.56
2018-06-22T14:44:42.708Z,97532.02
2018-06-22T14:47:10.126Z,97534.98
2018-06-22T14:49:37.820Z,97523.95
2018-06-22T14:52:05.375Z,97540.40
2018-06-22T14:57:43.682Z,97512.55
2018-06-22T15:03:10.710Z,97532.02
2018-06-22T15:08:32.325Z,97533.63
2018-06-22T15:10:59.838Z,97548.72
2018-06-22T15:13:27.462Z,97536.67
2018-06-22T15:15:55.676Z,97544.34
2018-06-22T15:18:23.310Z,97532.89
2018-06-22T15:20:50.857Z,97536.76
2018-06-22T15:23:18.375Z,97528.45
2018-06-22T15:25:45.892Z,97540.66
2018-06-22T15:28:13.375Z,97537.78
2018-06-22T15:30:40.888Z,97538.47
2018-06-22T15:33:08.910Z,97545.94
2018-06-22T15:38:46.309Z,97538.71
2018-06-22T15:44:20.877Z,97528.17
2018-06-22T15:49:46.255Z,97528.61
2018-06-22T15:55:06.775Z,97529.70
2018-06-22T15:57:34.264Z,97534.27
2018-06-22T16:00:01.924Z,97539.54
2018-06-22T16:02:29.227Z,97530.13
2018-06-22T16:04:56.805Z,97539.02
2018-06-22T16:07:24.273Z,97534.92
2018-06-22T16:09:51.776Z,97536.44
2018-06-22T16:12:19.299Z,97525.53
2018-06-22T16:14:46.762Z,97547.37
2018-06-22T16:20:27.462Z,97540.96
2018-06-22T16:23:11.873Z,97533.75
2018-06-22T16:28:31.607Z,97536.44
2018-06-22T16:30:59.109Z,97526.44
2018-06-22T16:33:26.620Z,97549.36
2018-06-22T16:35:54.250Z,97534.45
2018-06-22T16:38:21.716Z,97534.67
2018-06-22T16:40:49.220Z,97542.91
2018-06-22T16:43:17.363Z,97536.34
2018-06-22T16:45:44.867Z,97540.03
2018-06-22T16:48:12.411Z,97539.87
2018-06-22T16:50:40.073Z,97551.88
2018-06-22T16:53:07.605Z,97538.58
2018-06-22T16:55:35.049Z,97547.03
2018-06-22T16:58:02.638Z,97548.46
2018-06-22T17:00:30.107Z,97548.52
2018-06-22T17:02:57.624Z,97557.29
2018-06-22T17:05:25.151Z,97548.31
2018-06-22T17:10:59.665Z,97562.91
2018-06-22T17:13:42.053Z,97564.16
2018-06-22T17:19:02.689Z,97576.36
2018-06-22T17:21:30.558Z,97572.02
2018-06-22T17:23:58.123Z,97572.12
2018-06-22T17:26:25.601Z,97570.02
2018-06-22T17:28:53.067Z,97579.23
2018-06-22T17:31:20.606Z,97582.36
2018-06-22T17:33:48.189Z,97582.10
2018-06-22T17:36:15.629Z,97582.70
2018-06-22T17:38:43.135Z,97585.86
2018-06-22T17:41:10.689Z,97586.37
2018-06-22T17:43:38.155Z,97588.12
2018-06-22T17:46:05.728Z,97586.87
2018-06-22T17:48:33.196Z,97587.86
2018-06-22T17:51:00.664Z,97589.70
2018-06-22T17:53:28.251Z,97590.78
2018-06-22T17:55:55.701Z,97588.53
2018-06-22T17:58:23.145Z,97578.19
2018-06-22T18:03:53.255Z,97585.86
2018-06-22T18:06:36.579Z,97592.32
2018-06-22T18:09:04.225Z,97588.38
2018-06-22T18:11:37.397Z,97591.46
2018-06-22T18:14:04.987Z,97573.05
2018-06-22T18:16:32.566Z,97593.34
2018-06-22T18:19:00.120Z,97579.43
2018-06-22T18:21:27.643Z,97587.08
2018-06-22T18:23:55.141Z,97593.30
2018-06-22T18:26:22.583Z,97591.34
2018-06-22T18:28:50.052Z,97593.59
2018-06-22T18:31:17.579Z,97588.81
2018-06-22T18:33:45.042Z,97598.98
2018-06-22T18:36:12.547Z,97595.74
2018-06-22T18:38:39.982Z,97599.20
2018-06-22T18:41:07.488Z,97612.19
2018-06-22T18:43:35.115Z,97610.55
2018-06-22T18:46:02.609Z,97608.14
2018-06-22T18:48:30.273Z,97604.31
2018-06-22T18:50:57.726Z,97615.46
2018-06-22T18:56:33.092Z,97623.36
2018-06-22T18:59:06.193Z,97630.17
2018-06-22T19:04:26.811Z,97633.64
2018-06-22T19:06:54.321Z,97646.31
2018-06-22T19:09:21.828Z,97642.67
2018-06-22T19:11:49.376Z,97651.33
2018-06-22T19:14:16.739Z,97644.80
2018-06-22T19:16:45.634Z,97637.25
2018-06-22T19:19:13.882Z,97653.42
2018-06-22T19:21:41.582Z,97653.83
2018-06-22T19:24:09.095Z,97659.65
2018-06-22T19:26:36.559Z,97654.98
2018-06-22T19:29:04.034Z,97657.13
2018-06-22T19:31:31.476Z,97665.49
2018-06-22T19:33:58.963Z,97657.23
2018-06-22T19:36:26.402Z,97664.41
2018-06-22T19:38:53.923Z,97676.16
2018-06-22T19:41:21.404Z,97667.63
2018-06-22T19:43:48.856Z,97670.05
2018-06-22T19:49:25.200Z,97677.59
2018-06-22T19:54:47.105Z,97682.41
2018-06-22T19:57:14.601Z,97683.17
2018-06-22T19:59:42.084Z,97688.06
2018-06-22T20:02:09.550Z,97683.87
2018-06-22T20:04:37.055Z,97685.77
2018-06-22T20:07:04.483Z,97688.50
2018-06-22T20:09:31.980Z,97686.45
2018-06-22T20:11:59.540Z,97683.10
2018-06-22T20:14:27.008Z,97684.37
2018-06-22T20:16:54.658Z,97691.61
2018-06-22T20:19:22.105Z,97692.81
2018-06-22T20:21:50.041Z,97694.27
2018-06-22T20:24:17.758Z,97697.38
2018-06-22T20:26:46.109Z,97695.22
2018-06-22T20:29:13.539Z,97706.18
2018-06-22T20:31:41.018Z,97710.31
2018-06-22T20:34:08.488Z,97706.12
2018-06-22T20:39:44.887Z,97715.76
2018-06-22T20:45:14.148Z,97729.69
2018-06-22T20:47:41.618Z,97734.46
2018-06-22T20:53:02.019Z,97729.19
2018-06-22T20:55:29.493Z,97737.91
2018-06-22T20:57:56.968Z,97738.67
2018-06-22T21:00:24.378Z,97740.86
2018-06-22T21:02:51.878Z,97743.09
2018-06-22T21:05:19.390Z,97742.24
2018-06-22T21:07:46.798Z,97748.34
2018-06-22T21:10:14.277Z,97746.10
2018-06-22T21:12:41.791Z,97744.55
2018-06-22T21:15:09.257Z,97749.34
2018-06-22T21:17:36.846Z,97753.27
2018-06-22T21:20:04.259Z,97752.02
2018-06-22T21:22:31.767Z,97762.66
2018-06-22T21:24:59.366Z,97758.09
2018-06-22T21:27:26.843Z,97765.11
2018-06-22T21:33:08.019Z,97771.21
2018-06-22T21:38:44.353Z,97767.30
2018-06-22T21:41:11.876Z,97770.84
2018-06-22T21:43:39.373Z,97761.89
2018-06-22T21:46:06.880Z,97763.19
2018-06-22T21:48:34.304Z,97770.03
2018-06-22T21:51:01.769Z,97776.73
2018-06-22T21:53:29.292Z,97769.22
2018-06-22T21:55:56.668Z,97774.70
2018-06-22T21:58:24.133Z,97762.02
2018-06-22T22:00:51.591Z,97775.47
2018-06-22T22:03:18.983Z,97766.17
2018-06-22T22:05:46.429Z,97771.67
2018-06-22T22:08:13.841Z,97783.70
2018-06-22T22:10:41.327Z,97771.04
2018-06-22T22:13:08.844Z,97780.47
2018-06-22T22:15:36.901Z,97790.07
2018-06-22T22:18:04.355Z,97787.58
2018-06-22T22:20:31.808Z,97800.28
2018-06-22T22:22:59.261Z,97790.85
2018-06-22T22:25:26.718Z,97791.39
2018-06-22T22:27:54.782Z,97784.19
2018-06-22T22:30:22.201Z,97791.44
2018-06-22T22:32:50.440Z,97787.45
2018-06-22T22:35:17.997Z,97785.59
2018-06-22T22:37:45.520Z,97779.83
2018-06-22T22:40:12.997Z,97789.99
2018-06-22T22:42:40.415Z,97778.73
2018-06-22T22:45:07.879Z,97784.45
2018-06-22T22:47:35.371Z,97786.50
2018-06-22T22:50:02.840Z,97785.89
2018-06-22T22:52:30.304Z,97786.27
2018-06-22T22:54:57.748Z,97788.50
2018-06-22T22:57:25.158Z,97781.76
2018-06-22T22:59:52.647Z,97775.36
2018-06-22T23:02:20.169Z,97783.92
2018-06-22T23:04:47.751Z,97784.83
2018-06-22T23:07:15.186Z,97776.59
2018-06-22T23:09:42.627Z,97784.92
2018-06-22T23:12:10.030Z,97791.13
2018-06-22T23:14:37.465Z,97786.09
2018-06-22T23:17:04.936Z,97789.23
2018-06-22T23:19:32.414Z,97788.44
2018-06-22T23:21:59.862Z,97792.37
2018-06-22T23:24:29.056Z,97794.06
2018-06-22T23:26:56.579Z,97792.61
2018-06-22T23:29:24.242Z,97792.70
2018-06-22T23:31:51.731Z,97783.28
2018-06-22T23:34:19.139Z,97794.40
2018-06-22T23:36:46.545Z,97800.53
2018-06-22T23:39:14.213Z,97780.82
2018-06-22T23:41:41.950Z,97787.94
2018-06-22T23:44:09.392Z,97789.08
2018-06-22T23:46:36.891Z,97787.83
2018-06-22T23:49:04.302Z,97787.22
2018-06-22T23:51:31.807Z,97782.14
2018-06-22T23:53:59.287Z,97783.70
2018-06-22T23:56:26.718Z,97774.77
2018-06-22T23:58:54.145Z,97786.63
